Accueil
METAR-TAF:

METAR-TAF

Aéroports :

Uherské Hradiště, République Tchèque

latitude: 49-01-46N, longitude: 017-26-23E, altitude: 177 m

Observation

Le bulletin a été fait il y a 1 heure et 1 minutes, à 10:00 UTC
Vent 11 kt de nord
Température 16°C
Humidité 59%
Pression 1016 hPa
Visibilité 10 km ou plus
Quelques nuages à une hauteur de 3300 ft

METAR: LKKU 131000Z 35011KT 9999 FEW033 16/08 Q1016

Heure: 13:01 (11:01 UTC)


TAF: absent

Observations et prévisions météorologiques de plus de 4000 aéroports (messages METAR et TAF).

Les stations disponibles sont représentées par des disques jaunes et rouges sur la carte.

Passer la souris dessus pour voir le nom de la station.

Cliquer dessus pour voir les observations et prévisions météorologiques.

Pour changer de carte: cliquez sur les boutons verts avec une croix noire pour zoomer, sur le bouton vert avec un tiret pour effectuer un zoom arrière, ou sur les flèches vertes pour les cartes adjacentes.


METAR-TAF: